Terminal Aerodrome Forecast
Issued by NWS Wilmington, OH

Current Version | Previous Version | Graphics & Text | Print | Product List | Glossary On
Versions: 1 2 3 4 5 6 7 8 9 10 11 12 13 14 15 16 17 18 19 20 21 22 23 24 25
000
FTUS41 KILN 191100
TAFCMH
TAF
KCMH 191134Z 1912/2012 VRB03KT P6SM FEW040
     FM191400 21005KT P6SM SCT040
     FM191700 22008KT P6SM BKN040
     FM200300 21005KT P6SM VCTS BKN040CB
     FM200900 21005KT P6SM VCSH BKN040=

USA.gov is the U.S. government's official web portal to all federal, state and local government web resources and services.